BAW659 LGKF-EGLL
Flight info
| Callsign | BAW659 |
|---|---|
| Flight time | N/A |
| Altitude | 36000 |
| Route | DCT LATAN DCT LABIN DCT TULIK DCT UNIMI DCT XEBIX DCT USUDO DCT LIRSU DCT SPI DCT BUB L608 LOGAN LOGAN2H |
| Aircraft | A320/M-SDE3FGIJ1KRWXY/SB1 |
Departure
| Time | 2026-05-08 13:07 |
|---|---|
| Airport | Kefallinia Airport (LGKF) |
Arrival
| Time | N/A |
|---|---|
| Airport | London Heathrow Airport (EGLL) |
| Time | Latitude | Longitude | Altitude | Speed | Heading |
|---|---|---|---|---|---|
| 2026-05-08 12:50 | 38.11915 | 20.50387 | 57 ft | 0 kts | 102° |
| 2026-05-08 13:00 | 38.11917 | 20.50375 | 55 ft | 3 kts | 110° |
| 2026-05-08 13:01 | 38.11926 | 20.50354 | 56 ft | 3 kts | 134° |
| 2026-05-08 13:01 | 38.11940 | 20.50338 | 53 ft | 2 kts | 144° |
| 2026-05-08 13:01 | 38.11943 | 20.50335 | 53 ft | 0 kts | 145° |
| 2026-05-08 13:03 | 38.11939 | 20.50339 | 53 ft | 2 kts | 145° |
| 2026-05-08 13:03 | 38.11925 | 20.50351 | 56 ft | 3 kts | 145° |
| 2026-05-08 13:03 | 38.11902 | 20.50363 | 52 ft | 4 kts | 167° |
| 2026-05-08 13:04 | 38.11869 | 20.50373 | 54 ft | 6 kts | 167° |
| 2026-05-08 13:04 | 38.11827 | 20.50385 | 55 ft | 7 kts | 167° |
| 2026-05-08 13:04 | 38.11781 | 20.50380 | 61 ft | 7 kts | 213° |
| 2026-05-08 13:04 | 38.11734 | 20.50335 | 60 ft | 9 kts | 204° |
| 2026-05-08 13:05 | 38.11672 | 20.50339 | 56 ft | 9 kts | 150° |
| 2026-05-08 13:05 | 38.11599 | 20.50401 | 62 ft | 17 kts | 146° |
| 2026-05-08 13:05 | 38.11498 | 20.50488 | 60 ft | 18 kts | 146° |
| 2026-05-08 13:05 | 38.11398 | 20.50574 | 64 ft | 17 kts | 146° |
| 2026-05-08 13:06 | 38.11301 | 20.50668 | 65 ft | 17 kts | 153° |
| 2026-05-08 13:06 | 38.11296 | 20.50632 | 61 ft | 10 kts | 327° |
| 2026-05-08 13:06 | 38.11569 | 20.50417 | 60 ft | 90 kts | 325° |
| 2026-05-08 13:06 | 38.12296 | 20.49798 | 54 ft | 159 kts | 326° |
| 2026-05-08 13:07 | 38.13313 | 20.48914 | 435 ft | 177 kts | 322° |
| 2026-05-08 13:07 | 38.14305 | 20.48021 | 1237 ft | 174 kts | 320° |
| 2026-05-08 13:07 | 38.15325 | 20.47080 | 1785 ft | 192 kts | 318° |
| 2026-05-08 13:07 | 38.16460 | 20.46027 | 2297 ft | 210 kts | 318° |
| 2026-05-08 13:08 | 38.17645 | 20.44946 | 3086 ft | 207 kts | 317° |
| 2026-05-08 13:08 | 38.18841 | 20.43860 | 3592 ft | 216 kts | 316° |
| 2026-05-08 13:08 | 38.20105 | 20.42706 | 3986 ft | 228 kts | 317° |
| 2026-05-08 13:08 | 38.21386 | 20.41546 | 4660 ft | 230 kts | 317° |
| 2026-05-08 13:09 | 38.22682 | 20.40383 | 5426 ft | 229 kts | 317° |
| 2026-05-08 13:09 | 38.23991 | 20.39203 | 6104 ft | 231 kts | 316° |
| 2026-05-08 13:09 | 38.25294 | 20.37974 | 6684 ft | 233 kts | 309° |
| 2026-05-08 13:09 | 38.26183 | 20.36249 | 6955 ft | 237 kts | 283° |
| 2026-05-08 13:10 | 38.26658 | 20.34157 | 7365 ft | 252 kts | 280° |
| 2026-05-08 13:10 | 38.27135 | 20.31994 | 8138 ft | 255 kts | 281° |
| 2026-05-08 13:10 | 38.27862 | 20.29931 | 8963 ft | 264 kts | 297° |
| 2026-05-08 13:10 | 38.29098 | 20.28153 | 9803 ft | 272 kts | 308° |
| 2026-05-08 13:11 | 38.30470 | 20.26477 | 10422 ft | 280 kts | 308° |
| 2026-05-08 13:11 | 38.31927 | 20.24675 | 10586 ft | 303 kts | 308° |
| 2026-05-08 13:11 | 38.33482 | 20.22728 | 10842 ft | 320 kts | 308° |
| 2026-05-08 13:11 | 38.35087 | 20.20717 | 11409 ft | 326 kts | 308° |
| 2026-05-08 13:12 | 38.36712 | 20.18682 | 12054 ft | 329 kts | 308° |
| 2026-05-08 13:12 | 38.38348 | 20.16630 | 12715 ft | 331 kts | 308° |
| 2026-05-08 13:12 | 38.39995 | 20.14559 | 13371 ft | 333 kts | 308° |
| 2026-05-08 13:12 | 38.41652 | 20.12475 | 14012 ft | 336 kts | 307° |
| 2026-05-08 13:13 | 38.43318 | 20.10373 | 14599 ft | 338 kts | 307° |
| 2026-05-08 13:13 | 38.44975 | 20.08281 | 15174 ft | 339 kts | 307° |
| 2026-05-08 13:13 | 38.46658 | 20.06158 | 15737 ft | 341 kts | 307° |
| 2026-05-08 13:13 | 38.48354 | 20.04020 | 16301 ft | 343 kts | 307° |
| 2026-05-08 13:14 | 38.50057 | 20.01873 | 16872 ft | 345 kts | 307° |
| 2026-05-08 13:14 | 38.51773 | 19.99707 | 17453 ft | 347 kts | 307° |
| 2026-05-08 13:14 | 38.53502 | 19.97519 | 18023 ft | 350 kts | 307° |
| 2026-05-08 13:14 | 38.55237 | 19.95322 | 18546 ft | 352 kts | 307° |
| 2026-05-08 13:15 | 38.56965 | 19.93138 | 19044 ft | 354 kts | 307° |
| 2026-05-08 13:15 | 38.58719 | 19.90922 | 19562 ft | 355 kts | 307° |
| 2026-05-08 13:15 | 38.60481 | 19.88693 | 20083 ft | 357 kts | 307° |
| 2026-05-08 13:15 | 38.62247 | 19.86451 | 20598 ft | 358 kts | 307° |
| 2026-05-08 13:16 | 38.64022 | 19.84189 | 21094 ft | 360 kts | 307° |
| 2026-05-08 13:16 | 38.65800 | 19.81919 | 21569 ft | 362 kts | 307° |
| 2026-05-08 13:16 | 38.67587 | 19.79639 | 22053 ft | 363 kts | 307° |
| 2026-05-08 13:16 | 38.69384 | 19.77348 | 22520 ft | 365 kts | 306° |
| 2026-05-08 13:17 | 38.71188 | 19.75049 | 22979 ft | 366 kts | 306° |
| 2026-05-08 13:17 | 38.72975 | 19.72771 | 23433 ft | 368 kts | 306° |
| 2026-05-08 13:17 | 38.74797 | 19.70448 | 23826 ft | 370 kts | 306° |
| 2026-05-08 13:17 | 38.76626 | 19.68118 | 24198 ft | 371 kts | 307° |
| 2026-05-08 13:18 | 38.78463 | 19.65776 | 24564 ft | 373 kts | 307° |
| 2026-05-08 13:18 | 38.80305 | 19.63420 | 24949 ft | 375 kts | 306° |
| 2026-05-08 13:18 | 38.82150 | 19.61054 | 25305 ft | 376 kts | 306° |
| 2026-05-08 13:18 | 38.84003 | 19.58676 | 25663 ft | 377 kts | 306° |
| 2026-05-08 13:19 | 38.85864 | 19.56283 | 26021 ft | 378 kts | 307° |
| 2026-05-08 13:19 | 38.87729 | 19.53885 | 26376 ft | 380 kts | 307° |
| 2026-05-08 13:19 | 38.89602 | 19.51485 | 26744 ft | 381 kts | 307° |
| 2026-05-08 13:19 | 38.91484 | 19.49068 | 27106 ft | 382 kts | 307° |
| 2026-05-08 13:20 | 38.93345 | 19.46672 | 27469 ft | 384 kts | 307° |
| 2026-05-08 13:20 | 38.95233 | 19.44239 | 27848 ft | 385 kts | 307° |
| 2026-05-08 13:20 | 38.97128 | 19.41797 | 28211 ft | 386 kts | 307° |
| 2026-05-08 13:20 | 38.99030 | 19.39349 | 28661 ft | 385 kts | 307° |
| 2026-05-08 13:21 | 39.00918 | 19.36925 | 29186 ft | 382 kts | 307° |
| 2026-05-08 13:21 | 39.02790 | 19.34520 | 29709 ft | 380 kts | 307° |
| 2026-05-08 13:21 | 39.04649 | 19.32118 | 30205 ft | 377 kts | 307° |
| 2026-05-08 13:21 | 39.06497 | 19.29724 | 30630 ft | 375 kts | 307° |
| 2026-05-08 13:22 | 39.08315 | 19.27367 | 31028 ft | 374 kts | 307° |
| 2026-05-08 13:22 | 39.10149 | 19.24989 | 31420 ft | 373 kts | 307° |
| 2026-05-08 13:22 | 39.11976 | 19.22612 | 31807 ft | 373 kts | 307° |
| 2026-05-08 13:22 | 39.13805 | 19.20234 | 31959 ft | 375 kts | 307° |
| 2026-05-08 13:23 | 39.17515 | 19.15410 | 31972 ft | 380 kts | 307° |
| 2026-05-08 13:23 | 39.21248 | 19.10558 | 31981 ft | 381 kts | 307° |
| 2026-05-08 13:24 | 39.24977 | 19.05699 | 31972 ft | 380 kts | 307° |
| 2026-05-08 13:24 | 39.28696 | 19.00842 | 31971 ft | 381 kts | 309° |
| 2026-05-08 13:25 | 39.32953 | 18.96642 | 31960 ft | 389 kts | 316° |
| 2026-05-08 13:25 | 39.37365 | 18.92558 | 31955 ft | 391 kts | 316° |
| 2026-05-08 13:26 | 39.41811 | 18.88423 | 31945 ft | 393 kts | 316° |
| 2026-05-08 13:26 | 39.46238 | 18.84311 | 31944 ft | 395 kts | 316° |
| 2026-05-08 13:27 | 39.50707 | 18.80139 | 31945 ft | 395 kts | 316° |
| 2026-05-08 13:27 | 39.55175 | 18.75967 | 31957 ft | 396 kts | 317° |
| 2026-05-08 13:28 | 39.59626 | 18.71795 | 31979 ft | 397 kts | 317° |
| 2026-05-08 13:28 | 39.64130 | 18.67571 | 31936 ft | 401 kts | 318° |
| 2026-05-08 13:29 | 39.68672 | 18.63317 | 31935 ft | 404 kts | 318° |
| 2026-05-08 13:29 | 39.72468 | 18.59745 | 31938 ft | 406 kts | 318° |
| 2026-05-08 13:30 | 39.77051 | 18.55424 | 31939 ft | 407 kts | 318° |
| 2026-05-08 13:30 | 39.81648 | 18.51082 | 31949 ft | 408 kts | 318° |
| 2026-05-08 13:31 | 39.86246 | 18.46741 | 31967 ft | 409 kts | 320° |
| 2026-05-08 13:31 | 39.90884 | 18.42361 | 31924 ft | 413 kts | 319° |
| 2026-05-08 13:32 | 39.95539 | 18.37945 | 31929 ft | 414 kts | 319° |
| 2026-05-08 13:32 | 40.00177 | 18.33541 | 31937 ft | 415 kts | 319° |
| 2026-05-08 13:33 | 40.04839 | 18.29103 | 31946 ft | 415 kts | 319° |
| 2026-05-08 13:33 | 40.09512 | 18.24654 | 31944 ft | 415 kts | 319° |
| 2026-05-08 13:34 | 40.14191 | 18.20189 | 31929 ft | 417 kts | 320° |
| 2026-05-08 13:34 | 40.18877 | 18.15697 | 31921 ft | 420 kts | 320° |
| 2026-05-08 13:35 | 40.23653 | 18.11122 | 32216 ft | 429 kts | 320° |
| 2026-05-08 13:35 | 40.26060 | 18.08815 | 32585 ft | 429 kts | 320° |
| 2026-05-08 13:35 | 40.28470 | 18.06502 | 33015 ft | 427 kts | 320° |
| 2026-05-08 13:36 | 40.30864 | 18.04203 | 33474 ft | 425 kts | 320° |
| 2026-05-08 13:36 | 40.33215 | 18.01946 | 33933 ft | 422 kts | 320° |
| 2026-05-08 13:36 | 40.35582 | 17.99669 | 34328 ft | 420 kts | 320° |
| 2026-05-08 13:36 | 40.37952 | 17.97383 | 34552 ft | 423 kts | 320° |
| 2026-05-08 13:37 | 40.40332 | 17.95081 | 34786 ft | 424 kts | 320° |
| 2026-05-08 13:37 | 40.42678 | 17.92816 | 35062 ft | 424 kts | 320° |
| 2026-05-08 13:37 | 40.45058 | 17.90518 | 35353 ft | 424 kts | 320° |
| 2026-05-08 13:37 | 40.47439 | 17.88215 | 35652 ft | 424 kts | 320° |
| 2026-05-08 13:38 | 40.49817 | 17.85916 | 35897 ft | 425 kts | 320° |
| 2026-05-08 13:38 | 40.52197 | 17.83613 | 35946 ft | 425 kts | 320° |
| 2026-05-08 13:38 | 40.56949 | 17.79002 | 35932 ft | 424 kts | 319° |
| 2026-05-08 13:39 | 40.61672 | 17.74404 | 35933 ft | 427 kts | 320° |
| 2026-05-08 13:39 | 40.66456 | 17.69746 | 35935 ft | 428 kts | 320° |
| 2026-05-08 13:40 | 40.71248 | 17.65077 | 35936 ft | 428 kts | 320° |
| 2026-05-08 13:40 | 40.76034 | 17.60395 | 35945 ft | 428 kts | 320° |
| 2026-05-08 13:41 | 40.80788 | 17.55744 | 35954 ft | 428 kts | 320° |
| 2026-05-08 13:41 | 40.85578 | 17.51049 | 35976 ft | 428 kts | 320° |
| 2026-05-08 13:42 | 40.90359 | 17.46343 | 35943 ft | 429 kts | 320° |
| 2026-05-08 13:42 | 40.95158 | 17.41617 | 35945 ft | 430 kts | 320° |
| 2026-05-08 13:43 | 40.99938 | 17.36905 | 35960 ft | 431 kts | 320° |
| 2026-05-08 13:43 | 41.04747 | 17.32159 | 35971 ft | 431 kts | 320° |
| 2026-05-08 13:44 | 41.09560 | 17.27406 | 35984 ft | 431 kts | 320° |
| 2026-05-08 13:44 | 41.14373 | 17.22631 | 35973 ft | 432 kts | 320° |
| 2026-05-08 13:45 | 41.19186 | 17.17846 | 35965 ft | 433 kts | 320° |
| 2026-05-08 13:45 | 41.23975 | 17.13078 | 35970 ft | 433 kts | 320° |
| 2026-05-08 13:46 | 41.28802 | 17.08259 | 35970 ft | 433 kts | 320° |
| 2026-05-08 13:46 | 41.33634 | 17.03430 | 35998 ft | 433 kts | 319° |
| 2026-05-08 13:47 | 41.38412 | 16.98639 | 35989 ft | 434 kts | 320° |
| 2026-05-08 13:47 | 41.43251 | 16.93780 | 35987 ft | 435 kts | 320° |
| 2026-05-08 13:48 | 41.48093 | 16.88915 | 35998 ft | 435 kts | 320° |
| 2026-05-08 13:48 | 41.52932 | 16.84052 | 35998 ft | 435 kts | 320° |
| 2026-05-08 13:49 | 41.57746 | 16.79205 | 36007 ft | 435 kts | 319° |
| 2026-05-08 13:49 | 41.62574 | 16.74317 | 36014 ft | 435 kts | 320° |
| 2026-05-08 13:50 | 41.67416 | 16.69435 | 36023 ft | 436 kts | 319° |
| 2026-05-08 13:50 | 41.72241 | 16.64539 | 36026 ft | 434 kts | 319° |
| 2026-05-08 13:51 | 41.77047 | 16.59645 | 36030 ft | 433 kts | 319° |
| 2026-05-08 13:51 | 41.81838 | 16.54747 | 36048 ft | 433 kts | 319° |
| 2026-05-08 13:52 | 41.86613 | 16.49887 | 36027 ft | 433 kts | 320° |
| 2026-05-08 13:52 | 41.91412 | 16.44991 | 36031 ft | 433 kts | 319° |
| 2026-05-08 13:53 | 41.96201 | 16.40069 | 36028 ft | 434 kts | 319° |
| 2026-05-08 13:53 | 42.00998 | 16.35132 | 36033 ft | 434 kts | 319° |
| 2026-05-08 13:54 | 42.05769 | 16.30224 | 36052 ft | 433 kts | 319° |
| 2026-05-08 13:54 | 42.10567 | 16.25295 | 36041 ft | 433 kts | 319° |
| 2026-05-08 13:55 | 42.15368 | 16.20335 | 36039 ft | 434 kts | 319° |
| 2026-05-08 13:56 | 42.22522 | 16.12923 | 36035 ft | 434 kts | 319° |
| 2026-05-08 13:56 | 42.27320 | 16.07944 | 36036 ft | 434 kts | 319° |
| 2026-05-08 13:57 | 42.32117 | 16.02962 | 36042 ft | 435 kts | 319° |
| 2026-05-08 13:57 | 42.36914 | 15.97964 | 36045 ft | 435 kts | 319° |
| 2026-05-08 13:58 | 42.41686 | 15.92980 | 36039 ft | 435 kts | 319° |
| 2026-05-08 13:58 | 42.46486 | 15.87963 | 36030 ft | 435 kts | 319° |
| 2026-05-08 13:59 | 42.51278 | 15.82951 | 36032 ft | 435 kts | 319° |
| 2026-05-08 13:59 | 42.56068 | 15.77925 | 36042 ft | 435 kts | 319° |
| 2026-05-08 14:00 | 42.60825 | 15.72915 | 36031 ft | 435 kts | 319° |
| 2026-05-08 14:00 | 42.65620 | 15.67856 | 36043 ft | 436 kts | 319° |
| 2026-05-08 14:01 | 42.70418 | 15.62789 | 36052 ft | 436 kts | 319° |
| 2026-05-08 14:01 | 42.75173 | 15.57758 | 36053 ft | 436 kts | 319° |
| 2026-05-08 14:02 | 42.79958 | 15.52680 | 36057 ft | 436 kts | 319° |
| 2026-05-08 14:02 | 42.84759 | 15.47586 | 36052 ft | 437 kts | 319° |
| 2026-05-08 14:03 | 42.89549 | 15.42483 | 36058 ft | 437 kts | 318° |
| 2026-05-08 14:03 | 42.94337 | 15.37370 | 36054 ft | 437 kts | 318° |
| 2026-05-08 14:04 | 42.99132 | 15.32246 | 36054 ft | 437 kts | 318° |
| 2026-05-08 14:04 | 43.03890 | 15.27151 | 36065 ft | 437 kts | 318° |
| 2026-05-08 14:05 | 43.08684 | 15.21996 | 36063 ft | 438 kts | 318° |
| 2026-05-08 14:05 | 43.13473 | 15.16846 | 36054 ft | 438 kts | 318° |
| 2026-05-08 14:06 | 43.18265 | 15.11679 | 36050 ft | 438 kts | 318° |
| 2026-05-08 14:06 | 43.23059 | 15.06501 | 36066 ft | 438 kts | 318° |
| 2026-05-08 14:07 | 43.27852 | 15.01312 | 36060 ft | 438 kts | 318° |
| 2026-05-08 14:07 | 43.32610 | 14.96154 | 36057 ft | 439 kts | 318° |
| 2026-05-08 14:08 | 43.37397 | 14.90946 | 36065 ft | 439 kts | 317° |
| 2026-05-08 14:08 | 43.42177 | 14.85738 | 36062 ft | 438 kts | 317° |
| 2026-05-08 14:09 | 43.46948 | 14.80537 | 36070 ft | 438 kts | 317° |
| 2026-05-08 14:09 | 43.51727 | 14.75311 | 36062 ft | 438 kts | 317° |
| 2026-05-08 14:10 | 43.56514 | 14.70057 | 36056 ft | 439 kts | 317° |
| 2026-05-08 14:10 | 43.61272 | 14.64831 | 36055 ft | 439 kts | 317° |
| 2026-05-08 14:11 | 43.66053 | 14.59571 | 36056 ft | 439 kts | 317° |
| 2026-05-08 14:11 | 43.70842 | 14.54296 | 36067 ft | 439 kts | 317° |
| 2026-05-08 14:12 | 43.75619 | 14.49016 | 36054 ft | 440 kts | 317° |
| 2026-05-08 14:12 | 43.80357 | 14.43768 | 36054 ft | 440 kts | 317° |
| 2026-05-08 14:13 | 43.85147 | 14.38451 | 36054 ft | 440 kts | 317° |
| 2026-05-08 14:13 | 43.89927 | 14.33141 | 36261 ft | 439 kts | 317° |
| 2026-05-08 14:13 | 43.92301 | 14.30499 | 36667 ft | 436 kts | 317° |
| 2026-05-08 14:14 | 43.94658 | 14.27871 | 37045 ft | 434 kts | 317° |
| 2026-05-08 14:14 | 43.96975 | 14.25280 | 37388 ft | 432 kts | 317° |
| 2026-05-08 14:14 | 43.99309 | 14.22668 | 37720 ft | 430 kts | 317° |
| 2026-05-08 14:14 | 44.01636 | 14.20059 | 37995 ft | 430 kts | 317° |
| 2026-05-08 14:15 | 44.03970 | 14.17443 | 38043 ft | 430 kts | 317° |
| 2026-05-08 14:15 | 44.08622 | 14.12234 | 38041 ft | 429 kts | 317° |
| 2026-05-08 14:16 | 44.13273 | 14.07013 | 38041 ft | 429 kts | 317° |
| 2026-05-08 14:16 | 44.17139 | 14.02658 | 38041 ft | 430 kts | 317° |
| 2026-05-08 14:17 | 44.21793 | 13.97410 | 38041 ft | 430 kts | 317° |
| 2026-05-08 14:17 | 44.26455 | 13.92145 | 38047 ft | 431 kts | 316° |
| 2026-05-08 14:18 | 44.31082 | 13.86898 | 38060 ft | 431 kts | 317° |
| 2026-05-08 14:18 | 44.35743 | 13.81597 | 38067 ft | 432 kts | 316° |
| 2026-05-08 14:19 | 44.40406 | 13.76293 | 38063 ft | 432 kts | 316° |
| 2026-05-08 14:19 | 44.45076 | 13.70967 | 38062 ft | 433 kts | 316° |
| 2026-05-08 14:20 | 44.49750 | 13.65629 | 38057 ft | 433 kts | 316° |
| 2026-05-08 14:20 | 44.54391 | 13.60319 | 38056 ft | 433 kts | 317° |
| 2026-05-08 14:21 | 44.59061 | 13.54961 | 38066 ft | 434 kts | 317° |
| 2026-05-08 14:21 | 44.63738 | 13.49581 | 38052 ft | 435 kts | 317° |
| 2026-05-08 14:22 | 44.68412 | 13.44191 | 38052 ft | 435 kts | 316° |
| 2026-05-08 14:22 | 44.73098 | 13.38781 | 38050 ft | 435 kts | 316° |
| 2026-05-08 14:23 | 44.77778 | 13.33362 | 38063 ft | 435 kts | 316° |
| 2026-05-08 14:23 | 44.82433 | 13.27967 | 38068 ft | 436 kts | 316° |
| 2026-05-08 14:24 | 44.87114 | 13.22530 | 38062 ft | 436 kts | 316° |
| 2026-05-08 14:24 | 44.91795 | 13.17083 | 38054 ft | 436 kts | 316° |
| 2026-05-08 14:25 | 44.96477 | 13.11611 | 38050 ft | 436 kts | 316° |
| 2026-05-08 14:25 | 45.01197 | 13.06271 | 38061 ft | 438 kts | 319° |
| 2026-05-08 14:26 | 45.06175 | 13.01277 | 38065 ft | 439 kts | 321° |
| 2026-05-08 14:26 | 45.11226 | 12.96366 | 38060 ft | 439 kts | 321° |
| 2026-05-08 14:27 | 45.16215 | 12.91375 | 38050 ft | 439 kts | 320° |
| 2026-05-08 14:27 | 45.21177 | 12.86298 | 38048 ft | 439 kts | 320° |
| 2026-05-08 14:28 | 45.26104 | 12.81246 | 38070 ft | 439 kts | 320° |
| 2026-05-08 14:28 | 45.31065 | 12.76149 | 38059 ft | 439 kts | 319° |
| 2026-05-08 14:29 | 45.35981 | 12.70960 | 38048 ft | 440 kts | 319° |
| 2026-05-08 14:29 | 45.40839 | 12.65767 | 38045 ft | 440 kts | 319° |
| 2026-05-08 14:30 | 45.45736 | 12.60547 | 38045 ft | 440 kts | 319° |
| 2026-05-08 14:30 | 45.50622 | 12.55361 | 38055 ft | 440 kts | 319° |
| 2026-05-08 14:31 | 45.55539 | 12.50131 | 38051 ft | 440 kts | 319° |
| 2026-05-08 14:31 | 45.60458 | 12.44881 | 38047 ft | 440 kts | 319° |
| 2026-05-08 14:32 | 45.67814 | 12.37000 | 38044 ft | 440 kts | 319° |
| 2026-05-08 14:32 | 45.72686 | 12.31767 | 38062 ft | 440 kts | 319° |
| 2026-05-08 14:33 | 45.77587 | 12.26491 | 38057 ft | 441 kts | 319° |
| 2026-05-08 14:33 | 45.82499 | 12.21190 | 38056 ft | 441 kts | 319° |
| 2026-05-08 14:34 | 45.87376 | 12.15917 | 38058 ft | 441 kts | 319° |
| 2026-05-08 14:34 | 45.92275 | 12.10608 | 38057 ft | 441 kts | 319° |
| 2026-05-08 14:35 | 45.97179 | 12.05285 | 38066 ft | 441 kts | 319° |
| 2026-05-08 14:35 | 46.02080 | 11.99942 | 38059 ft | 441 kts | 319° |
| 2026-05-08 14:36 | 46.06976 | 11.94586 | 38084 ft | 441 kts | 319° |
| 2026-05-08 14:36 | 46.11840 | 11.89267 | 38064 ft | 441 kts | 319° |
| 2026-05-08 14:37 | 46.16746 | 11.83902 | 38062 ft | 442 kts | 319° |
| 2026-05-08 14:37 | 46.21645 | 11.78522 | 38052 ft | 441 kts | 319° |
| 2026-05-08 14:38 | 46.26509 | 11.73165 | 38067 ft | 443 kts | 318° |
| 2026-05-08 14:38 | 46.31406 | 11.67750 | 38064 ft | 443 kts | 318° |
| 2026-05-08 14:39 | 46.36296 | 11.62328 | 38066 ft | 442 kts | 318° |
| 2026-05-08 14:39 | 46.41186 | 11.56894 | 38016 ft | 442 kts | 318° |
| 2026-05-08 14:40 | 46.46043 | 11.51495 | 37999 ft | 442 kts | 318° |
| 2026-05-08 14:40 | 46.50937 | 11.46043 | 37997 ft | 443 kts | 318° |
| 2026-05-08 14:41 | 46.55828 | 11.40601 | 37997 ft | 442 kts | 318° |
| 2026-05-08 14:41 | 46.60686 | 11.35173 | 38008 ft | 442 kts | 318° |
| 2026-05-08 14:42 | 46.65564 | 11.29696 | 38017 ft | 442 kts | 318° |
| 2026-05-08 14:42 | 46.70439 | 11.24206 | 38052 ft | 442 kts | 318° |
| 2026-05-08 14:43 | 46.75277 | 11.18747 | 38052 ft | 442 kts | 318° |
| 2026-05-08 14:43 | 46.80138 | 11.13260 | 38055 ft | 442 kts | 318° |
| 2026-05-08 14:44 | 46.85001 | 11.07762 | 38053 ft | 441 kts | 318° |
| 2026-05-08 14:44 | 46.89896 | 11.02308 | 38050 ft | 442 kts | 319° |
| 2026-05-08 14:45 | 46.94869 | 10.97001 | 38036 ft | 443 kts | 320° |
| 2026-05-08 14:45 | 46.99832 | 10.91735 | 38031 ft | 443 kts | 320° |
| 2026-05-08 14:46 | 47.04808 | 10.86390 | 38034 ft | 444 kts | 319° |
| 2026-05-08 14:46 | 47.09775 | 10.81011 | 38047 ft | 444 kts | 319° |
| 2026-05-08 14:47 | 47.14735 | 10.75614 | 38063 ft | 443 kts | 319° |
| 2026-05-08 14:47 | 47.19664 | 10.70247 | 38057 ft | 443 kts | 319° |
| 2026-05-08 14:48 | 47.24620 | 10.64850 | 38060 ft | 443 kts | 319° |
| 2026-05-08 14:48 | 47.29570 | 10.59440 | 38067 ft | 442 kts | 320° |
| 2026-05-08 14:49 | 47.34519 | 10.54019 | 38079 ft | 443 kts | 319° |
| 2026-05-08 14:49 | 47.39436 | 10.48616 | 38082 ft | 442 kts | 319° |
| 2026-05-08 14:50 | 47.44336 | 10.43127 | 38096 ft | 442 kts | 318° |
| 2026-05-08 14:50 | 47.49166 | 10.37530 | 38083 ft | 440 kts | 318° |
| 2026-05-08 14:51 | 47.53991 | 10.31912 | 38082 ft | 441 kts | 318° |
| 2026-05-08 14:51 | 47.58835 | 10.26292 | 38099 ft | 441 kts | 318° |
| 2026-05-08 14:52 | 47.66070 | 10.17908 | 38062 ft | 441 kts | 318° |
| 2026-05-08 14:53 | 47.70887 | 10.12320 | 38059 ft | 441 kts | 318° |
| 2026-05-08 14:53 | 47.75730 | 10.06688 | 38054 ft | 442 kts | 318° |
| 2026-05-08 14:54 | 47.80564 | 10.01038 | 38060 ft | 442 kts | 318° |
| 2026-05-08 14:54 | 47.85409 | 9.95361 | 38069 ft | 442 kts | 318° |
| 2026-05-08 14:55 | 47.90244 | 9.89681 | 38064 ft | 443 kts | 318° |
| 2026-05-08 14:55 | 47.95054 | 9.84024 | 38056 ft | 442 kts | 318° |
| 2026-05-08 14:56 | 47.99893 | 9.78319 | 38065 ft | 442 kts | 318° |
| 2026-05-08 14:56 | 48.04717 | 9.72609 | 38071 ft | 442 kts | 318° |
| 2026-05-08 14:57 | 48.09472 | 9.66859 | 38066 ft | 440 kts | 313° |
| 2026-05-08 14:57 | 48.13879 | 9.60505 | 38062 ft | 440 kts | 313° |
| 2026-05-08 14:58 | 48.18279 | 9.54137 | 38059 ft | 440 kts | 313° |
| 2026-05-08 14:58 | 48.22680 | 9.47748 | 38055 ft | 440 kts | 313° |
| 2026-05-08 14:59 | 48.27050 | 9.41386 | 38067 ft | 439 kts | 313° |
| 2026-05-08 14:59 | 48.33630 | 9.31766 | 38051 ft | 439 kts | 313° |
| 2026-05-08 15:00 | 48.37971 | 9.25394 | 38045 ft | 439 kts | 313° |
| 2026-05-08 15:00 | 48.42342 | 9.18978 | 38044 ft | 439 kts | 313° |
| 2026-05-08 15:01 | 48.46715 | 9.12549 | 38046 ft | 439 kts | 313° |
| 2026-05-08 15:01 | 48.51089 | 9.06085 | 38053 ft | 439 kts | 313° |
| 2026-05-08 15:02 | 48.55417 | 8.99669 | 38066 ft | 439 kts | 313° |
| 2026-05-08 15:02 | 48.59769 | 8.93206 | 38064 ft | 438 kts | 313° |
| 2026-05-08 15:03 | 48.64114 | 8.86740 | 38062 ft | 438 kts | 313° |
| 2026-05-08 15:03 | 48.68433 | 8.80297 | 38057 ft | 438 kts | 313° |
| 2026-05-08 15:04 | 48.72769 | 8.73823 | 38050 ft | 438 kts | 313° |
| 2026-05-08 15:04 | 48.77104 | 8.67328 | 38056 ft | 438 kts | 313° |
| 2026-05-08 15:05 | 48.81433 | 8.60820 | 38054 ft | 438 kts | 313° |
| 2026-05-08 15:05 | 48.85756 | 8.54304 | 38057 ft | 438 kts | 313° |
| 2026-05-08 15:06 | 48.89354 | 8.48867 | 38057 ft | 438 kts | 313° |
| 2026-05-08 15:06 | 48.93685 | 8.42326 | 38063 ft | 438 kts | 313° |
| 2026-05-08 15:07 | 48.98013 | 8.35759 | 38066 ft | 438 kts | 312° |
| 2026-05-08 15:07 | 49.02291 | 8.29240 | 38069 ft | 438 kts | 312° |
| 2026-05-08 15:08 | 49.06598 | 8.22661 | 38070 ft | 438 kts | 312° |
| 2026-05-08 15:08 | 49.10901 | 8.16073 | 38067 ft | 438 kts | 312° |
| 2026-05-08 15:09 | 49.15212 | 8.09479 | 38069 ft | 438 kts | 312° |
| 2026-05-08 15:09 | 49.19509 | 8.02877 | 38071 ft | 438 kts | 312° |
| 2026-05-08 15:10 | 49.23805 | 7.96239 | 38087 ft | 438 kts | 312° |
| 2026-05-08 15:10 | 49.28091 | 7.89610 | 38092 ft | 438 kts | 312° |
| 2026-05-08 15:11 | 49.32378 | 7.82960 | 38087 ft | 438 kts | 312° |
| 2026-05-08 15:11 | 49.36612 | 7.76374 | 38083 ft | 438 kts | 312° |
| 2026-05-08 15:12 | 49.40891 | 7.69702 | 38082 ft | 438 kts | 312° |
| 2026-05-08 15:12 | 49.45164 | 7.63012 | 38081 ft | 438 kts | 312° |
| 2026-05-08 15:13 | 49.49435 | 7.56328 | 38084 ft | 438 kts | 312° |
| 2026-05-08 15:13 | 49.53702 | 7.49636 | 38103 ft | 437 kts | 312° |
| 2026-05-08 15:14 | 49.57963 | 7.42928 | 38103 ft | 437 kts | 312° |
| 2026-05-08 15:14 | 49.62182 | 7.36264 | 38097 ft | 437 kts | 312° |
| 2026-05-08 15:15 | 49.66430 | 7.29528 | 38099 ft | 437 kts | 312° |
| 2026-05-08 15:15 | 49.70688 | 7.22778 | 38100 ft | 438 kts | 312° |
| 2026-05-08 15:16 | 49.74932 | 7.16030 | 38110 ft | 438 kts | 312° |
| 2026-05-08 15:16 | 49.79177 | 7.09259 | 38105 ft | 437 kts | 312° |
| 2026-05-08 15:17 | 49.83378 | 7.02534 | 38101 ft | 437 kts | 311° |
| 2026-05-08 15:17 | 49.87603 | 6.95735 | 38104 ft | 437 kts | 311° |
| 2026-05-08 15:18 | 49.91819 | 6.88941 | 38102 ft | 437 kts | 311° |
| 2026-05-08 15:18 | 49.96037 | 6.82149 | 38091 ft | 436 kts | 312° |
| 2026-05-08 15:19 | 50.00253 | 6.75350 | 38106 ft | 437 kts | 311° |
| 2026-05-08 15:19 | 50.04462 | 6.68530 | 38099 ft | 437 kts | 311° |
| 2026-05-08 15:20 | 50.08635 | 6.61730 | 38091 ft | 437 kts | 311° |
| 2026-05-08 15:20 | 50.12836 | 6.54870 | 38100 ft | 437 kts | 311° |
| 2026-05-08 15:21 | 50.17040 | 6.48005 | 38106 ft | 437 kts | 311° |
| 2026-05-08 15:21 | 50.20649 | 6.40444 | 38103 ft | 433 kts | 300° |
| 2026-05-08 15:22 | 50.23838 | 6.32449 | 38097 ft | 434 kts | 300° |
| 2026-05-08 15:22 | 50.27004 | 6.24489 | 38108 ft | 434 kts | 300° |
| 2026-05-08 15:23 | 50.30198 | 6.16473 | 38104 ft | 434 kts | 300° |
| 2026-05-08 15:23 | 50.33383 | 6.08454 | 38103 ft | 433 kts | 300° |
| 2026-05-08 15:24 | 50.36556 | 6.00423 | 38108 ft | 433 kts | 300° |
| 2026-05-08 15:24 | 50.39721 | 5.92384 | 38104 ft | 433 kts | 300° |
| 2026-05-08 15:25 | 50.42882 | 5.84331 | 38103 ft | 433 kts | 300° |
| 2026-05-08 15:25 | 50.46025 | 5.76328 | 38108 ft | 433 kts | 300° |
| 2026-05-08 15:26 | 50.49181 | 5.68255 | 38108 ft | 433 kts | 300° |
| 2026-05-08 15:26 | 50.52304 | 5.60200 | 38117 ft | 433 kts | 299° |
| 2026-05-08 15:27 | 50.55319 | 5.51995 | 38117 ft | 433 kts | 298° |
| 2026-05-08 15:27 | 50.58247 | 5.43773 | 38114 ft | 433 kts | 298° |
| 2026-05-08 15:28 | 50.61205 | 5.35511 | 38118 ft | 433 kts | 298° |
| 2026-05-08 15:28 | 50.64186 | 5.27265 | 38129 ft | 433 kts | 298° |
| 2026-05-08 15:29 | 50.67169 | 5.18994 | 38126 ft | 433 kts | 298° |
| 2026-05-08 15:29 | 50.70135 | 5.10710 | 38126 ft | 433 kts | 298° |